createdAt,value
2018-10-02T00:00:11.060Z,10.15
2018-10-02T00:00:44.685Z,6.22
2018-10-02T00:01:18.348Z,6.17
2018-10-02T00:01:51.976Z,6.30
2018-10-02T00:02:25.630Z,6.33
2018-10-02T00:02:59.236Z,7.53
2018-10-02T00:03:32.896Z,6.55
2018-10-02T00:04:06.810Z,6.58
2018-10-02T00:04:40.446Z,6.17
2018-10-02T00:05:14.052Z,8.18
2018-10-02T00:05:47.698Z,6.03
2018-10-02T00:06:21.343Z,6.35
2018-10-02T00:06:55.018Z,7.08
2018-10-02T00:07:28.652Z,6.22
2018-10-02T00:08:02.247Z,7.03
2018-10-02T00:08:35.857Z,7.58
2018-10-02T00:09:11.184Z,5.90
2018-10-02T00:09:44.807Z,6.20
2018-10-02T00:10:18.398Z,7.80
2018-10-02T00:10:57.681Z,10.60
2018-10-02T00:11:37.084Z,5.90
2018-10-02T00:12:16.593Z,5.87
2018-10-02T00:13:55.693Z,7.87
2018-10-02T00:14:30.166Z,5.75
2018-10-02T00:15:03.885Z,5.80
2018-10-02T00:15:37.548Z,7.10
2018-10-02T00:16:11.195Z,5.95
2018-10-02T00:16:44.849Z,6.45
2018-10-02T00:17:18.557Z,6.72
2018-10-02T00:17:52.168Z,8.18
2018-10-02T00:18:25.780Z,6.45
2018-10-02T00:18:59.395Z,6.37
2018-10-02T00:19:33.028Z,6.00
2018-10-02T00:20:06.756Z,6.00
2018-10-02T00:20:40.418Z,6.70
2018-10-02T00:21:14.022Z,6.50
2018-10-02T00:21:47.742Z,6.83
2018-10-02T00:22:21.394Z,7.17
2018-10-02T00:22:55.008Z,6.00
2018-10-02T00:23:28.650Z,7.05
2018-10-02T00:24:02.318Z,6.10
2018-10-02T00:24:35.980Z,6.00
2018-10-02T00:25:09.683Z,7.37
2018-10-02T00:25:43.328Z,6.62
2018-10-02T00:26:16.972Z,7.78
2018-10-02T00:26:50.626Z,6.45
2018-10-02T00:27:24.280Z,10.25
2018-10-02T00:27:57.897Z,9.88
2018-10-02T00:28:31.546Z,6.00
2018-10-02T00:29:05.251Z,6.47
2018-10-02T00:29:38.894Z,5.80
2018-10-02T00:30:12.533Z,7.17
2018-10-02T00:30:46.206Z,6.75
2018-10-02T00:31:19.894Z,6.85
2018-10-02T00:31:53.625Z,6.60
2018-10-02T00:32:27.335Z,6.40
2018-10-02T00:33:00.844Z,5.92
2018-10-02T00:33:34.442Z,6.10
2018-10-02T00:34:08.739Z,5.90
2018-10-02T00:34:42.398Z,6.28
2018-10-02T00:35:16.059Z,7.90
2018-10-02T00:35:49.762Z,6.05
2018-10-02T00:36:23.391Z,6.40
2018-10-02T00:36:57.093Z,6.45
2018-10-02T00:37:30.700Z,6.30
2018-10-02T00:38:04.433Z,6.00
2018-10-02T00:38:38.049Z,5.97
2018-10-02T00:39:11.729Z,6.20
2018-10-02T00:39:45.329Z,7.78
2018-10-02T00:40:18.980Z,6.40
2018-10-02T00:40:52.646Z,6.83
2018-10-02T00:41:26.255Z,6.05
2018-10-02T00:41:59.944Z,6.20
2018-10-02T00:42:33.496Z,6.58
2018-10-02T00:43:07.161Z,6.28
2018-10-02T00:43:40.744Z,6.20
2018-10-02T00:44:14.394Z,6.28
2018-10-02T00:44:48.028Z,6.00
2018-10-02T00:45:21.639Z,6.00
2018-10-02T00:45:55.301Z,6.62
2018-10-02T00:46:29.074Z,5.83
2018-10-02T00:47:02.683Z,5.67
2018-10-02T00:47:36.338Z,6.20
2018-10-02T00:48:09.949Z,6.22
2018-10-02T00:48:43.557Z,6.40
2018-10-02T00:49:17.169Z,6.72
2018-10-02T00:49:50.791Z,5.97
2018-10-02T00:50:24.421Z,6.20
2018-10-02T00:50:58.051Z,6.10
2018-10-02T00:51:31.705Z,6.83
2018-10-02T00:52:05.327Z,5.62
2018-10-02T00:52:38.993Z,5.83
2018-10-02T00:53:12.620Z,7.40
2018-10-02T00:53:46.243Z,5.78
2018-10-02T00:54:19.914Z,5.60
2018-10-02T00:54:53.553Z,5.78
2018-10-02T00:55:27.165Z,5.55
2018-10-02T00:56:00.788Z,5.72
2018-10-02T00:56:34.414Z,6.58
2018-10-02T00:57:08.071Z,6.25
2018-10-02T00:57:41.715Z,7.85
2018-10-02T00:58:15.327Z,5.50
2018-10-02T00:58:48.947Z,5.85
2018-10-02T00:59:22.532Z,5.40
2018-10-02T00:59:56.183Z,5.75
2018-10-02T01:00:29.843Z,5.60
2018-10-02T01:01:03.771Z,7.37
2018-10-02T01:01:37.403Z,5.60
2018-10-02T01:02:11.004Z,6.67
2018-10-02T01:02:44.661Z,5.80
2018-10-02T01:03:18.270Z,5.85
2018-10-02T01:03:51.942Z,5.50
2018-10-02T01:04:25.565Z,5.75
2018-10-02T01:04:59.264Z,5.45
2018-10-02T01:05:32.875Z,6.03
2018-10-02T01:06:06.753Z,5.62
2018-10-02T01:06:40.388Z,5.60
2018-10-02T01:07:13.988Z,5.75
2018-10-02T01:07:47.669Z,6.72
2018-10-02T01:08:21.294Z,5.90
2018-10-02T01:08:54.911Z,5.70
2018-10-02T01:09:28.569Z,7.00
2018-10-02T01:10:02.189Z,6.85
2018-10-02T01:10:35.841Z,5.90
2018-10-02T01:11:09.445Z,6.08
2018-10-02T01:11:43.150Z,5.40
2018-10-02T01:12:16.780Z,5.55
2018-10-02T01:12:50.432Z,5.65
2018-10-02T01:13:24.055Z,5.83
2018-10-02T01:13:57.685Z,6.30
2018-10-02T01:14:31.323Z,5.50
2018-10-02T01:15:05.031Z,5.58
2018-10-02T01:15:38.664Z,5.60
2018-10-02T01:16:12.249Z,5.75
2018-10-02T01:16:45.871Z,7.10
2018-10-02T01:17:19.459Z,5.65
2018-10-02T01:17:53.091Z,5.65
2018-10-02T01:18:26.720Z,6.40
2018-10-02T01:19:00.343Z,6.03
2018-10-02T01:19:34.001Z,5.42
2018-10-02T01:20:08.771Z,5.67
2018-10-02T01:20:42.458Z,5.62
2018-10-02T01:21:16.119Z,7.22
2018-10-02T01:21:49.713Z,5.65
2018-10-02T01:22:23.328Z,5.30
2018-10-02T01:22:56.970Z,6.53
2018-10-02T01:23:30.681Z,5.70
2018-10-02T01:24:04.500Z,5.77
2018-10-02T01:24:38.119Z,5.78
2018-10-02T01:25:11.773Z,5.40
2018-10-02T01:25:45.401Z,5.60
2018-10-02T01:26:19.069Z,5.60
2018-10-02T01:26:52.681Z,6.42
2018-10-02T01:27:26.283Z,5.83
2018-10-02T01:28:00.171Z,6.30
2018-10-02T01:28:33.763Z,5.62
2018-10-02T01:29:07.441Z,5.85
2018-10-02T01:29:41.033Z,5.55
2018-10-02T01:30:14.708Z,6.60
2018-10-02T01:30:48.334Z,5.80
2018-10-02T01:31:22.087Z,5.47
2018-10-02T01:31:55.675Z,5.40
2018-10-02T01:32:29.309Z,5.62
2018-10-02T01:33:02.981Z,5.67
2018-10-02T01:33:36.616Z,7.30
2018-10-02T01:34:10.244Z,5.60
2018-10-02T01:34:43.886Z,5.60
2018-10-02T01:35:17.549Z,5.60
2018-10-02T01:35:51.171Z,5.70
2018-10-02T01:36:24.797Z,5.37
2018-10-02T01:36:58.395Z,6.17
2018-10-02T01:37:32.047Z,5.60
2018-10-02T01:38:05.715Z,5.45
2018-10-02T01:38:39.365Z,5.40
2018-10-02T01:39:12.996Z,5.30
2018-10-02T01:39:46.629Z,5.75
2018-10-02T01:40:20.251Z,5.78
2018-10-02T01:40:53.881Z,5.90
2018-10-02T01:41:27.508Z,5.63
2018-10-02T01:42:01.092Z,5.78
2018-10-02T01:42:34.716Z,5.50
2018-10-02T01:43:08.311Z,5.62
2018-10-02T01:43:43.254Z,5.80
2018-10-02T01:44:16.887Z,5.70
2018-10-02T01:44:50.527Z,5.30
2018-10-02T01:45:24.427Z,7.10
2018-10-02T01:45:58.157Z,5.70
2018-10-02T01:46:31.817Z,7.12
2018-10-02T01:47:05.479Z,5.47
2018-10-02T01:47:39.111Z,5.55
2018-10-02T01:48:12.731Z,5.70
2018-10-02T01:48:46.367Z,5.75
2018-10-02T01:49:19.987Z,5.42
2018-10-02T01:49:53.577Z,5.80
2018-10-02T01:50:27.223Z,5.50
2018-10-02T01:51:00.868Z,5.70
2018-10-02T01:51:34.517Z,5.90
2018-10-02T01:52:08.133Z,5.62
2018-10-02T01:52:41.771Z,5.70
2018-10-02T01:53:15.437Z,6.97
2018-10-02T01:53:49.013Z,5.60
2018-10-02T01:54:22.634Z,6.42
2018-10-02T01:54:56.264Z,5.33
2018-10-02T01:55:29.884Z,5.70
2018-10-02T01:56:03.525Z,5.53
2018-10-02T01:56:37.123Z,5.60
2018-10-02T01:57:10.771Z,5.55
2018-10-02T01:57:44.391Z,6.12
2018-10-02T01:58:17.999Z,5.60
2018-10-02T01:58:51.611Z,6.00
2018-10-02T01:59:25.274Z,5.95
2018-10-02T01:59:58.931Z,5.65
2018-10-02T02:00:32.587Z,5.90
2018-10-02T02:01:06.267Z,6.25
2018-10-02T02:01:39.912Z,5.60
2018-10-02T02:02:13.575Z,6.60
2018-10-02T02:02:47.225Z,6.08
2018-10-02T02:03:20.885Z,7.40
2018-10-02T02:03:54.496Z,5.47
2018-10-02T02:04:28.123Z,6.42
2018-10-02T02:05:01.792Z,5.60
2018-10-02T02:05:35.424Z,5.95
2018-10-02T02:06:09.079Z,6.03
2018-10-02T02:06:42.696Z,6.85
2018-10-02T02:07:16.299Z,6.08
2018-10-02T02:07:49.951Z,5.83
2018-10-02T02:08:23.590Z,5.60
2018-10-02T02:08:57.213Z,6.50
2018-10-02T02:09:31.083Z,6.00
2018-10-02T02:10:05.409Z,5.97
2018-10-02T02:10:39.044Z,6.72
2018-10-02T02:11:12.667Z,5.78
2018-10-02T02:11:46.271Z,7.55
2018-10-02T02:12:19.924Z,6.78
2018-10-02T02:12:53.576Z,6.17
2018-10-02T02:13:27.238Z,6.08
2018-10-02T02:14:00.876Z,6.67
2018-10-02T02:14:34.575Z,6.30
2018-10-02T02:15:08.245Z,6.28
2018-10-02T02:15:41.886Z,5.90
2018-10-02T02:16:15.480Z,6.33
2018-10-02T02:16:49.162Z,6.30
2018-10-02T02:17:22.788Z,6.08
2018-10-02T02:17:56.561Z,7.20
2018-10-02T02:18:30.196Z,6.58
2018-10-02T02:19:03.918Z,6.12
2018-10-02T02:19:37.537Z,8.53
2018-10-02T02:20:11.184Z,6.20
2018-10-02T02:20:44.780Z,6.25
2018-10-02T02:21:18.421Z,7.87
2018-10-02T02:21:52.050Z,6.75
2018-10-02T02:22:25.684Z,6.45
2018-10-02T02:22:59.298Z,6.75
2018-10-02T02:23:32.913Z,6.30
2018-10-02T02:24:06.565Z,6.37
2018-10-02T02:24:40.196Z,6.33
2018-10-02T02:25:13.882Z,6.12
2018-10-02T02:25:47.510Z,8.78
2018-10-02T02:26:21.166Z,7.50
2018-10-02T02:26:54.780Z,6.35
2018-10-02T02:27:28.415Z,6.10
2018-10-02T02:28:02.236Z,6.10
2018-10-02T02:28:35.989Z,6.90
2018-10-02T02:29:09.660Z,6.78
2018-10-02T02:29:43.295Z,6.72
2018-10-02T02:30:16.986Z,9.38
2018-10-02T02:30:50.538Z,6.37
2018-10-02T02:31:24.143Z,9.65
2018-10-02T02:31:57.778Z,6.60
2018-10-02T02:32:31.372Z,6.08
2018-10-02T02:33:05.034Z,6.62
2018-10-02T02:33:38.676Z,6.05
2018-10-02T02:34:12.348Z,6.70
2018-10-02T02:34:45.958Z,6.12
2018-10-02T02:35:19.652Z,6.28
2018-10-02T02:35:53.287Z,6.30
2018-10-02T02:36:27.044Z,6.15
2018-10-02T02:37:00.734Z,7.22
2018-10-02T02:37:34.348Z,6.00
2018-10-02T02:38:07.996Z,6.10
2018-10-02T02:38:41.654Z,7.33
2018-10-02T02:39:15.304Z,7.85
2018-10-02T02:39:48.942Z,6.15
2018-10-02T02:40:22.574Z,6.53
2018-10-02T02:40:56.322Z,7.12
2018-10-02T02:41:29.904Z,7.67
2018-10-02T02:42:03.564Z,5.97
2018-10-02T02:42:37.176Z,6.00
2018-10-02T02:43:10.828Z,6.72
2018-10-02T02:43:44.484Z,6.28
2018-10-02T02:44:18.186Z,6.17
2018-10-02T02:44:51.828Z,5.72
2018-10-02T02:45:25.468Z,7.33
2018-10-02T02:45:59.120Z,6.70
2018-10-02T02:46:32.780Z,7.03
2018-10-02T02:47:12.123Z,5.87
2018-10-02T02:47:51.510Z,8.15
2018-10-02T02:48:30.745Z,5.97
2018-10-02T02:49:10.124Z,7.85
2018-10-02T02:49:49.354Z,7.22
2018-10-02T02:50:28.708Z,6.20
2018-10-02T02:51:08.145Z,9.03
2018-10-02T02:51:41.809Z,5.70
2018-10-02T02:52:17.284Z,6.40
2018-10-02T02:52:55.388Z,7.78
2018-10-02T02:53:29.100Z,8.45
2018-10-02T02:54:02.736Z,7.87
2018-10-02T02:54:36.443Z,6.72
2018-10-02T02:55:10.098Z,6.12
2018-10-02T02:55:44.212Z,5.92
2018-10-02T02:56:17.864Z,6.47
2018-10-02T02:56:51.480Z,6.05
2018-10-02T02:57:25.141Z,7.83
2018-10-02T02:57:58.716Z,6.17
2018-10-02T02:58:32.342Z,7.53
2018-10-02T02:59:05.994Z,8.68
2018-10-02T02:59:39.652Z,6.37
2018-10-02T03:00:13.372Z,8.23
2018-10-02T03:00:47.084Z,6.47
2018-10-02T03:01:20.701Z,6.28
2018-10-02T03:01:54.345Z,6.45
2018-10-02T03:02:28.020Z,7.30
2018-10-02T03:03:01.703Z,6.60
2018-10-02T03:03:35.312Z,7.37
2018-10-02T03:04:08.966Z,8.63
2018-10-02T03:04:42.618Z,6.58
2018-10-02T03:05:16.272Z,7.25
2018-10-02T03:05:49.885Z,6.55
2018-10-02T03:06:23.581Z,7.47
2018-10-02T03:06:57.241Z,6.83
2018-10-02T03:07:30.841Z,8.33
2018-10-02T03:08:04.480Z,7.00
2018-10-02T03:08:38.108Z,6.65
2018-10-02T03:09:11.734Z,7.22
2018-10-02T03:09:45.399Z,7.45
2018-10-02T03:10:19.046Z,7.03
2018-10-02T03:10:52.706Z,8.60
2018-10-02T03:11:26.366Z,6.85
2018-10-02T03:12:00.098Z,8.10
2018-10-02T03:12:33.708Z,8.15
2018-10-02T03:13:07.373Z,8.10
2018-10-02T03:13:41.037Z,8.25
2018-10-02T03:14:14.660Z,8.70
2018-10-02T03:14:48.315Z,7.50
2018-10-02T03:15:21.971Z,10.55
2018-10-02T03:15:55.566Z,7.55
2018-10-02T03:16:29.208Z,8.60
2018-10-02T03:17:02.828Z,11.53
2018-10-02T03:17:36.445Z,7.42
2018-10-02T03:18:10.297Z,8.48
2018-10-02T03:18:43.920Z,8.28
2018-10-02T03:19:17.540Z,6.97
2018-10-02T03:19:51.201Z,7.90
2018-10-02T03:20:24.881Z,6.62
2018-10-02T03:20:58.491Z,9.98
2018-10-02T03:21:32.245Z,7.53
2018-10-02T03:22:05.767Z,7.85
2018-10-02T03:22:39.370Z,10.53
2018-10-02T03:23:12.986Z,7.03
2018-10-02T03:23:46.652Z,9.23
2018-10-02T03:24:20.318Z,9.68
2018-10-02T03:24:53.922Z,9.05
2018-10-02T03:25:27.532Z,9.85
2018-10-02T03:26:01.147Z,8.55
2018-10-02T03:26:34.770Z,7.22
2018-10-02T03:27:08.453Z,8.58
2018-10-02T03:27:42.091Z,11.25
2018-10-02T03:28:15.693Z,10.00
2018-10-02T03:28:49.321Z,7.00
2018-10-02T03:29:22.959Z,7.95
2018-10-02T03:29:56.604Z,11.33
2018-10-02T03:30:30.240Z,9.65
2018-10-02T03:31:03.999Z,8.80
2018-10-02T03:31:37.648Z,8.23
2018-10-02T03:32:11.355Z,6.92
2018-10-02T03:32:44.969Z,6.62
2018-10-02T03:33:18.603Z,16.12
2018-10-02T03:33:52.294Z,8.78
2018-10-02T03:34:25.887Z,8.00
2018-10-02T03:34:59.518Z,7.50
2018-10-02T03:35:33.130Z,9.75
2018-10-02T03:36:06.867Z,7.25
2018-10-02T03:36:40.508Z,6.58
2018-10-02T03:37:14.129Z,8.93
2018-10-02T03:37:47.810Z,10.60
2018-10-02T03:38:21.380Z,11.50
2018-10-02T03:38:55.009Z,9.88
2018-10-02T03:39:28.704Z,8.83
2018-10-02T03:40:02.427Z,8.40
2018-10-02T03:40:36.099Z,6.65
2018-10-02T03:41:09.700Z,7.80
2018-10-02T03:41:43.359Z,8.75
2018-10-02T03:42:17.019Z,8.68
2018-10-02T03:42:50.630Z,6.70
2018-10-02T03:43:24.545Z,7.87
2018-10-02T03:43:58.139Z,10.35
2018-10-02T03:44:31.949Z,7.87
2018-10-02T03:45:05.735Z,9.43
2018-10-02T03:45:39.339Z,9.88
2018-10-02T03:46:12.924Z,10.32
2018-10-02T03:46:46.548Z,8.08
2018-10-02T03:47:20.205Z,8.00
2018-10-02T03:47:53.846Z,7.08
2018-10-02T03:48:27.511Z,8.33
2018-10-02T03:49:01.291Z,8.73
2018-10-02T03:49:34.856Z,10.00
2018-10-02T03:50:08.529Z,8.78
2018-10-02T03:50:42.164Z,10.10
2018-10-02T03:51:15.797Z,10.65
2018-10-02T03:51:49.395Z,7.03
2018-10-02T03:52:23.023Z,7.30
2018-10-02T03:52:56.661Z,7.80
2018-10-02T03:53:30.311Z,9.68
2018-10-02T03:54:03.982Z,15.90
2018-10-02T03:54:37.568Z,9.85
2018-10-02T03:55:11.235Z,11.85
2018-10-02T03:55:44.915Z,10.45
2018-10-02T03:56:18.531Z,10.80
2018-10-02T03:56:52.181Z,9.78
2018-10-02T03:57:25.819Z,10.93
2018-10-02T03:57:59.501Z,10.50
2018-10-02T03:58:33.092Z,9.63
2018-10-02T03:59:06.903Z,9.53
2018-10-02T03:59:40.557Z,9.10
2018-10-02T04:00:14.321Z,11.40
2018-10-02T04:00:48.283Z,8.10
2018-10-02T04:01:21.904Z,12.03
2018-10-02T04:01:55.568Z,13.72
2018-10-02T04:02:29.178Z,10.15
2018-10-02T04:03:02.810Z,10.60
2018-10-02T04:03:36.430Z,9.75
2018-10-02T04:04:10.009Z,13.30
2018-10-02T04:04:43.634Z,10.68
2018-10-02T04:05:17.349Z,11.25
2018-10-02T04:05:51.029Z,15.43
2018-10-02T04:06:24.687Z,8.80
2018-10-02T04:06:58.397Z,12.47
2018-10-02T04:07:32.112Z,16.25
2018-10-02T04:08:05.861Z,9.38
2018-10-02T04:08:39.571Z,7.53
2018-10-02T04:09:13.157Z,11.95
2018-10-02T04:09:46.815Z,8.28
2018-10-02T04:10:20.430Z,10.28
2018-10-02T04:10:54.068Z,8.45
2018-10-02T04:11:27.709Z,9.10
2018-10-02T04:12:01.367Z,6.45
2018-10-02T04:12:34.991Z,10.30
2018-10-02T04:13:08.598Z,12.18
2018-10-02T04:13:42.231Z,9.55
2018-10-02T04:14:15.851Z,8.43
2018-10-02T04:14:49.506Z,8.45
2018-10-02T04:15:23.179Z,14.00
2018-10-02T04:15:56.793Z,6.37
2018-10-02T04:16:30.431Z,12.45
2018-10-02T04:17:04.103Z,8.63
2018-10-02T04:17:37.758Z,11.83
2018-10-02T04:18:11.375Z,8.53
2018-10-02T04:18:45.033Z,10.53
2018-10-02T04:19:18.665Z,9.38
2018-10-02T04:19:52.267Z,6.50
2018-10-02T04:20:27.383Z,9.90
2018-10-02T04:21:00.967Z,9.68
2018-10-02T04:21:35.491Z,13.45
2018-10-02T04:22:09.117Z,8.75
2018-10-02T04:22:42.705Z,13.83
2018-10-02T04:23:16.359Z,12.20
2018-10-02T04:23:49.994Z,16.55
2018-10-02T04:24:23.615Z,11.50
2018-10-02T04:24:57.269Z,11.75
2018-10-02T04:25:30.891Z,9.55
2018-10-02T04:26:04.512Z,10.28
2018-10-02T04:26:38.163Z,15.28
2018-10-02T04:27:11.773Z,9.78
2018-10-02T04:27:45.479Z,11.25
2018-10-02T04:28:19.131Z,13.25
2018-10-02T04:28:52.775Z,11.65
2018-10-02T04:29:26.438Z,11.63
2018-10-02T04:30:00.119Z,13.32
2018-10-02T04:30:33.764Z,9.25
2018-10-02T04:31:07.425Z,11.20
2018-10-02T04:31:41.045Z,10.53
2018-10-02T04:32:14.641Z,12.07
2018-10-02T04:32:48.311Z,10.00
2018-10-02T04:33:21.952Z,11.03
2018-10-02T04:33:55.678Z,15.08
2018-10-02T04:34:29.218Z,11.15
2018-10-02T04:35:02.937Z,8.33
2018-10-02T04:35:36.577Z,9.40
2018-10-02T04:36:10.186Z,11.03
2018-10-02T04:36:43.812Z,14.50
2018-10-02T04:37:17.484Z,11.88
2018-10-02T04:37:51.196Z,11.57
2018-10-02T04:38:24.810Z,13.38
2018-10-02T04:38:58.515Z,15.83
2018-10-02T04:39:32.246Z,10.90
2018-10-02T04:40:05.874Z,8.73
2018-10-02T04:40:39.487Z,11.33
2018-10-02T04:41:13.310Z,11.48
2018-10-02T04:41:46.976Z,8.20
2018-10-02T04:42:20.632Z,8.20
2018-10-02T04:42:54.347Z,11.68
2018-10-02T04:43:28.002Z,12.28
2018-10-02T04:44:01.666Z,9.93
2018-10-02T04:44:35.379Z,6.85
2018-10-02T04:45:09.092Z,8.83
2018-10-02T04:45:42.813Z,8.08
2018-10-02T04:46:16.468Z,10.08
2018-10-02T04:46:50.178Z,10.45
2018-10-02T04:47:23.780Z,9.50
2018-10-02T04:47:57.399Z,8.60
2018-10-02T04:48:31.039Z,10.85
2018-10-02T04:49:04.733Z,8.70
2018-10-02T04:49:38.441Z,9.85
2018-10-02T04:50:12.111Z,10.45
2018-10-02T04:50:45.780Z,7.15
2018-10-02T04:51:19.645Z,7.00
2018-10-02T04:51:53.279Z,8.35
2018-10-02T04:52:26.965Z,9.53
2018-10-02T04:53:00.572Z,9.55
2018-10-02T04:53:34.222Z,8.88
2018-10-02T04:54:07.864Z,11.70
2018-10-02T04:54:41.484Z,8.58
2018-10-02T04:55:15.152Z,9.63
2018-10-02T04:55:48.842Z,8.95
2018-10-02T04:56:22.563Z,7.40
2018-10-02T04:56:56.107Z,8.50
2018-10-02T04:57:29.770Z,8.83
2018-10-02T04:58:03.398Z,8.18
2018-10-02T04:58:37.085Z,10.23
2018-10-02T04:59:10.764Z,10.05
2018-10-02T04:59:44.439Z,7.92
2018-10-02T05:00:18.113Z,5.85
2018-10-02T05:00:51.807Z,7.12
2018-10-02T05:01:25.400Z,8.43
2018-10-02T05:01:59.019Z,9.80
2018-10-02T05:02:32.667Z,9.58
2018-10-02T05:03:06.316Z,6.95
2018-10-02T05:03:39.952Z,8.13
2018-10-02T05:04:13.617Z,8.03
2018-10-02T05:04:47.269Z,7.97
2018-10-02T05:05:20.902Z,9.43
2018-10-02T05:05:54.584Z,8.55
2018-10-02T05:06:28.210Z,8.60
2018-10-02T05:07:01.886Z,6.62
2018-10-02T05:07:35.475Z,7.58
2018-10-02T05:08:09.156Z,8.35
2018-10-02T05:08:42.779Z,6.00
2018-10-02T05:09:16.406Z,8.68
2018-10-02T05:09:50.023Z,10.45
2018-10-02T05:10:23.754Z,9.35
2018-10-02T05:10:57.418Z,6.92
2018-10-02T05:11:31.080Z,7.53
2018-10-02T05:12:04.748Z,9.65
2018-10-02T05:12:38.377Z,12.63
2018-10-02T05:13:12.036Z,7.95
2018-10-02T05:13:45.654Z,10.32
2018-10-02T05:14:19.307Z,7.62
2018-10-02T05:14:52.929Z,10.53
2018-10-02T05:15:26.568Z,10.45
2018-10-02T05:16:00.293Z,14.90
2018-10-02T05:16:33.895Z,10.43
2018-10-02T05:17:07.637Z,9.98
2018-10-02T05:17:41.277Z,9.95
2018-10-02T05:18:14.997Z,10.53
2018-10-02T05:18:48.651Z,10.35
2018-10-02T05:19:22.304Z,8.50
2018-10-02T05:19:55.978Z,11.18
2018-10-02T05:20:29.652Z,8.48
2018-10-02T05:21:03.353Z,10.80
2018-10-02T05:21:37.014Z,14.05
2018-10-02T05:22:10.628Z,13.48
2018-10-02T05:22:44.332Z,12.18
2018-10-02T05:23:18.224Z,10.70
2018-10-02T05:23:51.890Z,18.45
2018-10-02T05:24:25.572Z,13.65
2018-10-02T05:24:59.164Z,11.78
2018-10-02T05:25:32.826Z,14.60
2018-10-02T05:26:06.526Z,11.30
2018-10-02T05:26:40.217Z,14.40
2018-10-02T05:27:13.926Z,9.85
2018-10-02T05:27:47.550Z,11.25
2018-10-02T05:28:21.144Z,7.35
2018-10-02T05:28:54.724Z,11.22
2018-10-02T05:29:28.402Z,11.20
2018-10-02T05:30:02.068Z,11.28
2018-10-02T05:30:35.716Z,12.15
2018-10-02T05:31:09.422Z,10.32
2018-10-02T05:31:43.073Z,11.30
2018-10-02T05:32:16.776Z,12.33
2018-10-02T05:32:50.431Z,10.90
2018-10-02T05:33:24.074Z,11.30
2018-10-02T05:33:57.760Z,10.82
2018-10-02T05:34:31.364Z,10.13
2018-10-02T05:35:05.098Z,9.13
2018-10-02T05:35:38.821Z,9.58
2018-10-02T05:36:12.437Z,12.68
2018-10-02T05:36:46.065Z,7.92
2018-10-02T05:37:19.697Z,6.72
2018-10-02T05:37:53.306Z,10.78
2018-10-02T05:38:26.949Z,9.25
2018-10-02T05:39:00.591Z,9.83
2018-10-02T05:39:34.264Z,11.78
2018-10-02T05:40:07.930Z,9.13
2018-10-02T05:40:41.671Z,10.53
2018-10-02T05:41:15.305Z,7.95
2018-10-02T05:41:48.965Z,7.53
2018-10-02T05:42:22.603Z,9.43
2018-10-02T05:42:56.172Z,7.75
2018-10-02T05:43:29.785Z,7.55
2018-10-02T05:44:03.482Z,9.25
2018-10-02T05:44:37.114Z,9.00
2018-10-02T05:45:10.779Z,7.45
2018-10-02T05:45:44.437Z,9.13
2018-10-02T05:46:18.253Z,9.60
2018-10-02T05:46:51.907Z,9.48
2018-10-02T05:47:25.592Z,7.87
2018-10-02T05:47:59.298Z,8.63
2018-10-02T05:48:33.015Z,12.33
2018-10-02T05:49:06.685Z,9.60
2018-10-02T05:49:40.360Z,10.53
2018-10-02T05:50:13.961Z,9.68
2018-10-02T05:50:47.569Z,8.28
2018-10-02T05:51:21.192Z,7.72
2018-10-02T05:51:54.826Z,8.83
2018-10-02T05:52:28.513Z,9.55
2018-10-02T05:53:02.161Z,11.25
2018-10-02T05:53:36.094Z,7.92
2018-10-02T05:54:09.719Z,10.98
2018-10-02T05:54:43.408Z,10.25
2018-10-02T05:55:17.048Z,8.15
2018-10-02T05:55:50.732Z,9.58
2018-10-02T05:56:24.434Z,7.35
2018-10-02T05:56:58.108Z,9.40
2018-10-02T05:57:32.509Z,10.72
2018-10-02T05:58:06.443Z,7.72
2018-10-02T05:58:40.145Z,10.45
2018-10-02T05:59:13.769Z,9.43
2018-10-02T05:59:47.446Z,11.63
2018-10-02T06:00:21.206Z,9.18
2018-10-02T06:00:55.011Z,6.33
2018-10-02T06:01:28.711Z,9.55
2018-10-02T06:02:02.675Z,12.70
2018-10-02T06:02:36.326Z,10.10
2018-10-02T06:03:09.977Z,13.40
2018-10-02T06:03:43.668Z,10.88
2018-10-02T06:04:17.287Z,11.38
2018-10-02T06:04:50.925Z,10.20
2018-10-02T06:05:24.601Z,10.03
2018-10-02T06:05:58.192Z,9.35
2018-10-02T06:06:31.827Z,8.38
2018-10-02T06:07:05.693Z,11.35
2018-10-02T06:07:39.323Z,8.83
2018-10-02T06:08:12.985Z,11.70
2018-10-02T06:08:46.621Z,13.85
2018-10-02T06:09:20.217Z,8.75
2018-10-02T06:09:54.025Z,14.83
2018-10-02T06:10:27.641Z,10.95
2018-10-02T06:11:01.285Z,10.53
2018-10-02T06:11:34.917Z,8.33
2018-10-02T06:12:08.609Z,12.33
2018-10-02T06:12:42.253Z,11.40
2018-10-02T06:13:15.887Z,11.80
2018-10-02T06:13:49.565Z,11.35
2018-10-02T06:14:23.221Z,9.73
2018-10-02T06:14:56.871Z,8.43
2018-10-02T06:15:30.529Z,11.15
2018-10-02T06:16:04.219Z,10.75
2018-10-02T06:16:38.011Z,9.28
2018-10-02T06:17:11.604Z,8.58
2018-10-02T06:17:45.329Z,8.75
2018-10-02T06:18:19.024Z,10.05
2018-10-02T06:18:52.761Z,8.98
2018-10-02T06:19:26.443Z,9.30
2018-10-02T06:20:00.109Z,8.35
2018-10-02T06:20:33.778Z,10.75
2018-10-02T06:21:07.412Z,13.55
2018-10-02T06:21:41.049Z,12.98
2018-10-02T06:22:14.775Z,14.28
2018-10-02T06:22:48.489Z,13.72
2018-10-02T06:23:22.099Z,8.63
2018-10-02T06:23:55.727Z,10.45
2018-10-02T06:24:29.394Z,9.15
2018-10-02T06:25:03.107Z,16.10
2018-10-02T06:25:36.729Z,8.28
2018-10-02T06:26:10.375Z,7.20
2018-10-02T06:26:44.019Z,8.80
2018-10-02T06:27:17.675Z,6.50
2018-10-02T06:27:51.341Z,13.98
2018-10-02T06:28:24.940Z,13.15
2018-10-02T06:28:58.575Z,13.45
2018-10-02T06:29:32.325Z,11.15
2018-10-02T06:30:06.086Z,11.95
2018-10-02T06:30:39.716Z,9.93
2018-10-02T06:31:13.377Z,12.60
2018-10-02T06:31:46.985Z,12.47
2018-10-02T06:32:20.655Z,10.32
2018-10-02T06:32:54.318Z,10.58
2018-10-02T06:33:28.061Z,17.25
2018-10-02T06:34:01.694Z,12.23
2018-10-02T06:34:35.583Z,11.25
2018-10-02T06:35:09.273Z,8.80
2018-10-02T06:35:42.977Z,10.63
2018-10-02T06:36:16.753Z,8.15
2018-10-02T06:36:51.208Z,9.78
2018-10-02T06:37:24.797Z,9.80
2018-10-02T06:37:58.454Z,10.72
2018-10-02T06:38:32.157Z,13.05
2018-10-02T06:39:07.571Z,7.25
2018-10-02T06:39:41.273Z,8.70
2018-10-02T06:40:14.943Z,9.83
2018-10-02T06:40:48.613Z,10.45
2018-10-02T06:41:22.251Z,7.40
2018-10-02T06:41:56.240Z,8.78
2018-10-02T06:42:29.889Z,12.53
2018-10-02T06:43:03.523Z,9.00
2018-10-02T06:43:37.269Z,12.37
2018-10-02T06:44:11.141Z,11.35
2018-10-02T06:44:44.833Z,7.95
2018-10-02T06:45:18.490Z,9.83
2018-10-02T06:45:52.199Z,11.57
2018-10-02T06:46:25.805Z,9.95
2018-10-02T06:46:59.662Z,12.65
2018-10-02T06:47:33.283Z,11.45
2018-10-02T06:48:07.002Z,11.97
2018-10-02T06:48:40.657Z,13.30
2018-10-02T06:49:14.315Z,10.68
2018-10-02T06:49:47.994Z,7.95
2018-10-02T06:50:21.602Z,9.03
2018-10-02T06:50:55.267Z,14.55
2018-10-02T06:51:29.092Z,11.78
2018-10-02T06:52:02.745Z,11.95
2018-10-02T06:52:36.690Z,10.28
2018-10-02T06:53:10.062Z,13.40
2018-10-02T06:53:43.653Z,13.30
2018-10-02T06:54:17.313Z,12.90
2018-10-02T06:54:50.938Z,11.00
2018-10-02T06:55:24.602Z,12.18
2018-10-02T06:55:58.218Z,13.93
2018-10-02T06:56:31.888Z,14.23
2018-10-02T06:57:06.407Z,19.40
2018-10-02T06:57:39.837Z,15.35
2018-10-02T06:58:13.492Z,12.07
2018-10-02T06:58:47.139Z,9.40
2018-10-02T06:59:20.828Z,11.57
2018-10-02T06:59:54.511Z,8.58
2018-10-02T07:00:28.212Z,12.90
2018-10-02T07:01:01.792Z,14.70
2018-10-02T07:01:35.415Z,11.85
2018-10-02T07:02:09.091Z,9.90
2018-10-02T07:02:42.791Z,8.88
2018-10-02T07:03:16.393Z,9.28
2018-10-02T07:03:50.058Z,10.30
2018-10-02T07:04:23.660Z,11.88
2018-10-02T07:04:57.325Z,10.53
2018-10-02T07:05:30.970Z,11.08
2018-10-02T07:06:04.696Z,14.00
2018-10-02T07:06:38.396Z,10.53
2018-10-02T07:07:12.035Z,13.80
2018-10-02T07:07:45.631Z,13.48
2018-10-02T07:08:19.352Z,14.23
2018-10-02T07:08:53.025Z,7.53
2018-10-02T07:09:26.683Z,11.95
2018-10-02T07:10:00.323Z,10.30
2018-10-02T07:10:34.014Z,12.25
2018-10-02T07:11:07.627Z,7.80
2018-10-02T07:11:41.306Z,9.03
2018-10-02T07:12:14.976Z,10.30
2018-10-02T07:12:48.654Z,7.60
2018-10-02T07:13:22.258Z,10.53
2018-10-02T07:13:55.884Z,13.28
2018-10-02T07:14:29.641Z,8.05
2018-10-02T07:15:03.462Z,9.55
2018-10-02T07:15:37.038Z,13.05
2018-10-02T07:16:10.692Z,11.75
2018-10-02T07:16:44.349Z,11.60
2018-10-02T07:17:18.169Z,8.95
2018-10-02T07:17:51.810Z,10.28
2018-10-02T07:18:25.463Z,14.98
2018-10-02T07:18:59.175Z,10.00
2018-10-02T07:19:32.864Z,11.80
2018-10-02T07:20:06.660Z,11.63
2018-10-02T07:20:40.308Z,9.65
2018-10-02T07:21:13.912Z,12.05
2018-10-02T07:21:47.547Z,9.20
2018-10-02T07:22:21.236Z,9.38
2018-10-02T07:22:54.871Z,15.23
2018-10-02T07:23:28.512Z,9.23
2018-10-02T07:24:02.147Z,10.00
2018-10-02T07:24:35.862Z,13.03
2018-10-02T07:25:09.514Z,11.70
2018-10-02T07:25:43.162Z,10.70